sensor_id;sensor_type;location;lat;lon;timestamp;P1;durP1;ratioP1;P2;durP2;ratioP2
21168;SDS011;10742;51.816;8.662;2024-03-22T00:02:01;33.77;;;17.40;;
21168;SDS011;10742;51.816;8.662;2024-03-22T00:05:21;34.10;;;17.47;;
21168;SDS011;10742;51.816;8.662;2024-03-22T00:08:42;34.87;;;16.80;;
21168;SDS011;10742;51.816;8.662;2024-03-22T00:12:02;35.63;;;17.37;;
21168;SDS011;10742;51.816;8.662;2024-03-22T00:15:23;34.10;;;17.33;;
21168;SDS011;10742;51.816;8.662;2024-03-22T00:18:44;35.73;;;18.57;;
21168;SDS011;10742;51.816;8.662;2024-03-22T00:22:04;34.80;;;17.30;;
21168;SDS011;10742;51.816;8.662;2024-03-22T00:25:25;33.23;;;16.80;;
21168;SDS011;10742;51.816;8.662;2024-03-22T00:28:45;35.97;;;18.17;;
21168;SDS011;10742;51.816;8.662;2024-03-22T00:32:06;34.47;;;17.63;;
21168;SDS011;10742;51.816;8.662;2024-03-22T00:35:27;36.23;;;17.50;;
21168;SDS011;10742;51.816;8.662;2024-03-22T00:38:48;35.43;;;18.00;;
21168;SDS011;10742;51.816;8.662;2024-03-22T00:42:08;35.40;;;17.77;;
21168;SDS011;10742;51.816;8.662;2024-03-22T00:45:29;32.43;;;17.00;;
21168;SDS011;10742;51.816;8.662;2024-03-22T00:48:49;31.17;;;16.87;;
21168;SDS011;10742;51.816;8.662;2024-03-22T00:52:10;35.53;;;17.60;;
21168;SDS011;10742;51.816;8.662;2024-03-22T00:55:30;37.50;;;17.63;;
21168;SDS011;10742;51.816;8.662;2024-03-22T00:58:50;34.37;;;18.17;;
21168;SDS011;10742;51.816;8.662;2024-03-22T01:02:11;34.10;;;18.10;;
21168;SDS011;10742;51.816;8.662;2024-03-22T01:05:32;37.83;;;18.27;;
21168;SDS011;10742;51.816;8.662;2024-03-22T01:08:52;35.83;;;17.57;;
21168;SDS011;10742;51.816;8.662;2024-03-22T01:12:12;36.40;;;18.07;;
21168;SDS011;10742;51.816;8.662;2024-03-22T01:15:33;32.77;;;17.17;;
21168;SDS011;10742;51.816;8.662;2024-03-22T01:18:53;36.80;;;17.63;;
21168;SDS011;10742;51.816;8.662;2024-03-22T01:22:14;35.97;;;18.33;;
21168;SDS011;10742;51.816;8.662;2024-03-22T01:25:36;32.73;;;16.50;;
21168;SDS011;10742;51.816;8.662;2024-03-22T01:28:56;37.23;;;17.73;;
21168;SDS011;10742;51.816;8.662;2024-03-22T01:32:16;36.20;;;18.53;;
21168;SDS011;10742;51.816;8.662;2024-03-22T01:35:37;37.27;;;17.60;;
21168;SDS011;10742;51.816;8.662;2024-03-22T01:38:57;32.90;;;16.97;;
21168;SDS011;10742;51.816;8.662;2024-03-22T01:42:18;36.10;;;17.60;;
21168;SDS011;10742;51.816;8.662;2024-03-22T01:45:41;34.87;;;17.90;;
21168;SDS011;10742;51.816;8.662;2024-03-22T01:49:02;35.97;;;18.07;;
21168;SDS011;10742;51.816;8.662;2024-03-22T01:52:22;36.57;;;18.93;;
21168;SDS011;10742;51.816;8.662;2024-03-22T01:55:43;34.73;;;18.00;;
21168;SDS011;10742;51.816;8.662;2024-03-22T01:59:06;38.13;;;18.40;;
21168;SDS011;10742;51.816;8.662;2024-03-22T02:02:27;34.53;;;17.77;;
21168;SDS011;10742;51.816;8.662;2024-03-22T02:05:47;38.87;;;18.47;;
21168;SDS011;10742;51.816;8.662;2024-03-22T02:09:08;36.10;;;18.07;;
21168;SDS011;10742;51.816;8.662;2024-03-22T02:12:29;38.77;;;19.27;;
21168;SDS011;10742;51.816;8.662;2024-03-22T02:15:49;37.93;;;17.77;;
21168;SDS011;10742;51.816;8.662;2024-03-22T02:19:10;37.23;;;18.17;;
21168;SDS011;10742;51.816;8.662;2024-03-22T02:22:30;35.27;;;17.50;;
21168;SDS011;10742;51.816;8.662;2024-03-22T02:25:51;39.00;;;18.77;;
21168;SDS011;10742;51.816;8.662;2024-03-22T02:29:33;38.70;;;18.77;;
21168;SDS011;10742;51.816;8.662;2024-03-22T02:32:54;38.30;;;18.40;;
21168;SDS011;10742;51.816;8.662;2024-03-22T02:36:14;38.10;;;18.33;;
21168;SDS011;10742;51.816;8.662;2024-03-22T02:39:35;36.50;;;17.13;;
21168;SDS011;10742;51.816;8.662;2024-03-22T02:42:55;38.43;;;18.20;;
21168;SDS011;10742;51.816;8.662;2024-03-22T02:46:16;36.40;;;18.07;;
21168;SDS011;10742;51.816;8.662;2024-03-22T02:49:37;38.60;;;18.70;;
21168;SDS011;10742;51.816;8.662;2024-03-22T02:52:58;37.80;;;18.57;;
21168;SDS011;10742;51.816;8.662;2024-03-22T02:56:18;39.47;;;18.23;;
21168;SDS011;10742;51.816;8.662;2024-03-22T02:59:39;37.60;;;17.50;;
21168;SDS011;10742;51.816;8.662;2024-03-22T03:02:59;37.70;;;18.43;;
21168;SDS011;10742;51.816;8.662;2024-03-22T03:06:20;38.33;;;17.57;;
21168;SDS011;10742;51.816;8.662;2024-03-22T03:09:41;37.27;;;17.47;;
21168;SDS011;10742;51.816;8.662;2024-03-22T03:13:01;38.70;;;17.57;;
21168;SDS011;10742;51.816;8.662;2024-03-22T03:16:21;36.33;;;16.47;;
21168;SDS011;10742;51.816;8.662;2024-03-22T03:19:42;35.63;;;15.70;;
21168;SDS011;10742;51.816;8.662;2024-03-22T03:23:03;38.77;;;16.17;;
21168;SDS011;10742;51.816;8.662;2024-03-22T03:26:24;41.10;;;17.63;;
21168;SDS011;10742;51.816;8.662;2024-03-22T03:29:44;37.50;;;15.90;;
21168;SDS011;10742;51.816;8.662;2024-03-22T03:33:05;37.33;;;16.27;;
21168;SDS011;10742;51.816;8.662;2024-03-22T03:36:25;37.83;;;16.87;;
21168;SDS011;10742;51.816;8.662;2024-03-22T03:39:46;36.40;;;16.73;;
21168;SDS011;10742;51.816;8.662;2024-03-22T03:43:06;38.70;;;16.30;;
21168;SDS011;10742;51.816;8.662;2024-03-22T03:46:27;34.53;;;15.53;;
21168;SDS011;10742;51.816;8.662;2024-03-22T03:49:47;36.03;;;15.37;;
21168;SDS011;10742;51.816;8.662;2024-03-22T03:53:08;35.90;;;16.70;;
21168;SDS011;10742;51.816;8.662;2024-03-22T03:56:28;35.93;;;15.57;;
21168;SDS011;10742;51.816;8.662;2024-03-22T03:59:49;34.20;;;14.60;;
21168;SDS011;10742;51.816;8.662;2024-03-22T04:03:09;36.53;;;16.13;;
21168;SDS011;10742;51.816;8.662;2024-03-22T04:06:30;35.47;;;14.97;;
21168;SDS011;10742;51.816;8.662;2024-03-22T04:09:51;33.27;;;14.70;;
21168;SDS011;10742;51.816;8.662;2024-03-22T04:13:11;34.27;;;15.00;;
21168;SDS011;10742;51.816;8.662;2024-03-22T04:16:32;32.17;;;14.00;;
21168;SDS011;10742;51.816;8.662;2024-03-22T04:19:52;34.90;;;14.93;;
21168;SDS011;10742;51.816;8.662;2024-03-22T04:23:12;38.23;;;14.83;;
21168;SDS011;10742;51.816;8.662;2024-03-22T04:26:33;33.03;;;14.50;;
21168;SDS011;10742;51.816;8.662;2024-03-22T04:29:53;34.70;;;14.50;;
21168;SDS011;10742;51.816;8.662;2024-03-22T04:33:14;32.20;;;14.60;;
21168;SDS011;10742;51.816;8.662;2024-03-22T04:36:34;30.57;;;13.87;;
21168;SDS011;10742;51.816;8.662;2024-03-22T04:39:55;31.37;;;13.37;;
21168;SDS011;10742;51.816;8.662;2024-03-22T04:43:15;32.07;;;13.00;;
21168;SDS011;10742;51.816;8.662;2024-03-22T04:46:36;31.73;;;13.87;;
21168;SDS011;10742;51.816;8.662;2024-03-22T04:49:56;32.67;;;14.10;;
21168;SDS011;10742;51.816;8.662;2024-03-22T04:53:17;34.50;;;13.93;;
21168;SDS011;10742;51.816;8.662;2024-03-22T04:56:39;31.47;;;13.33;;
21168;SDS011;10742;51.816;8.662;2024-03-22T05:00:00;29.57;;;12.73;;
21168;SDS011;10742;51.816;8.662;2024-03-22T05:03:20;29.13;;;12.80;;
21168;SDS011;10742;51.816;8.662;2024-03-22T05:06:40;32.17;;;13.60;;
21168;SDS011;10742;51.816;8.662;2024-03-22T05:10:01;34.27;;;13.60;;
21168;SDS011;10742;51.816;8.662;2024-03-22T05:13:22;32.27;;;13.13;;
21168;SDS011;10742;51.816;8.662;2024-03-22T05:16:42;29.60;;;12.63;;
21168;SDS011;10742;51.816;8.662;2024-03-22T05:20:03;31.67;;;12.93;;
21168;SDS011;10742;51.816;8.662;2024-03-22T05:23:25;31.47;;;12.80;;
21168;SDS011;10742;51.816;8.662;2024-03-22T05:26:45;32.93;;;13.63;;
21168;SDS011;10742;51.816;8.662;2024-03-22T05:30:06;32.03;;;12.20;;
21168;SDS011;10742;51.816;8.662;2024-03-22T05:33:27;28.20;;;11.90;;
21168;SDS011;10742;51.816;8.662;2024-03-22T05:36:50;29.63;;;12.20;;
21168;SDS011;10742;51.816;8.662;2024-03-22T05:40:11;29.60;;;12.57;;
21168;SDS011;10742;51.816;8.662;2024-03-22T05:43:32;28.70;;;11.37;;
21168;SDS011;10742;51.816;8.662;2024-03-22T05:46:52;30.57;;;11.30;;
21168;SDS011;10742;51.816;8.662;2024-03-22T05:50:13;27.83;;;11.10;;
21168;SDS011;10742;51.816;8.662;2024-03-22T05:53:34;29.37;;;10.90;;
21168;SDS011;10742;51.816;8.662;2024-03-22T05:56:55;26.23;;;10.73;;
21168;SDS011;10742;51.816;8.662;2024-03-22T06:00:15;28.07;;;11.03;;
21168;SDS011;10742;51.816;8.662;2024-03-22T06:03:36;27.23;;;10.93;;
21168;SDS011;10742;51.816;8.662;2024-03-22T06:06:57;27.47;;;11.43;;
21168;SDS011;10742;51.816;8.662;2024-03-22T06:10:19;28.73;;;10.60;;
21168;SDS011;10742;51.816;8.662;2024-03-22T06:13:39;25.93;;;10.23;;
21168;SDS011;10742;51.816;8.662;2024-03-22T06:17:00;28.33;;;10.50;;
21168;SDS011;10742;51.816;8.662;2024-03-22T06:20:20;29.00;;;10.93;;
21168;SDS011;10742;51.816;8.662;2024-03-22T06:23:40;23.50;;;10.10;;
21168;SDS011;10742;51.816;8.662;2024-03-22T06:27:01;26.03;;;10.63;;
21168;SDS011;10742;51.816;8.662;2024-03-22T06:30:22;25.27;;;10.00;;
21168;SDS011;10742;51.816;8.662;2024-03-22T06:33:43;26.87;;;10.73;;
21168;SDS011;10742;51.816;8.662;2024-03-22T06:37:03;23.20;;;10.03;;
21168;SDS011;10742;51.816;8.662;2024-03-22T06:40:27;26.60;;;11.03;;
21168;SDS011;10742;51.816;8.662;2024-03-22T06:43:47;27.67;;;11.13;;
21168;SDS011;10742;51.816;8.662;2024-03-22T06:47:08;30.17;;;10.87;;
21168;SDS011;10742;51.816;8.662;2024-03-22T06:50:28;26.57;;;11.13;;
21168;SDS011;10742;51.816;8.662;2024-03-22T06:53:48;28.93;;;11.23;;
21168;SDS011;10742;51.816;8.662;2024-03-22T06:57:09;26.80;;;10.67;;
21168;SDS011;10742;51.816;8.662;2024-03-22T07:00:29;26.77;;;11.77;;
21168;SDS011;10742;51.816;8.662;2024-03-22T07:03:50;27.83;;;11.00;;
21168;SDS011;10742;51.816;8.662;2024-03-22T07:07:12;26.47;;;10.87;;
21168;SDS011;10742;51.816;8.662;2024-03-22T07:10:32;28.60;;;11.43;;
21168;SDS011;10742;51.816;8.662;2024-03-22T07:13:53;26.23;;;11.00;;
21168;SDS011;10742;51.816;8.662;2024-03-22T07:17:14;26.93;;;11.23;;
21168;SDS011;10742;51.816;8.662;2024-03-22T07:20:35;27.27;;;10.83;;
21168;SDS011;10742;51.816;8.662;2024-03-22T07:23:55;26.50;;;11.17;;
21168;SDS011;10742;51.816;8.662;2024-03-22T07:27:16;27.17;;;11.17;;
21168;SDS011;10742;51.816;8.662;2024-03-22T07:30:36;26.67;;;10.87;;
21168;SDS011;10742;51.816;8.662;2024-03-22T07:33:57;26.63;;;11.20;;
21168;SDS011;10742;51.816;8.662;2024-03-22T07:37:17;25.97;;;11.00;;
21168;SDS011;10742;51.816;8.662;2024-03-22T07:40:38;24.67;;;11.10;;
21168;SDS011;10742;51.816;8.662;2024-03-22T07:43:59;24.67;;;10.77;;
21168;SDS011;10742;51.816;8.662;2024-03-22T07:47:20;26.20;;;11.17;;
21168;SDS011;10742;51.816;8.662;2024-03-22T07:50:40;25.27;;;10.60;;
21168;SDS011;10742;51.816;8.662;2024-03-22T07:54:01;24.87;;;10.20;;
21168;SDS011;10742;51.816;8.662;2024-03-22T07:57:22;24.83;;;10.47;;
21168;SDS011;10742;51.816;8.662;2024-03-22T08:00:43;27.70;;;10.37;;
21168;SDS011;10742;51.816;8.662;2024-03-22T08:04:04;25.13;;;9.97;;
21168;SDS011;10742;51.816;8.662;2024-03-22T08:07:27;23.37;;;9.70;;
21168;SDS011;10742;51.816;8.662;2024-03-22T08:10:48;24.13;;;9.17;;
21168;SDS011;10742;51.816;8.662;2024-03-22T08:14:09;22.80;;;9.53;;
21168;SDS011;10742;51.816;8.662;2024-03-22T08:17:29;24.03;;;9.37;;
21168;SDS011;10742;51.816;8.662;2024-03-22T08:20:49;22.27;;;9.00;;
21168;SDS011;10742;51.816;8.662;2024-03-22T08:24:10;23.00;;;8.93;;
21168;SDS011;10742;51.816;8.662;2024-03-22T08:27:33;22.50;;;8.57;;
21168;SDS011;10742;51.816;8.662;2024-03-22T08:30:54;18.47;;;8.13;;
21168;SDS011;10742;51.816;8.662;2024-03-22T08:34:14;18.73;;;8.00;;
21168;SDS011;10742;51.816;8.662;2024-03-22T08:37:35;19.70;;;7.67;;
21168;SDS011;10742;51.816;8.662;2024-03-22T08:40:56;19.60;;;6.90;;
21168;SDS011;10742;51.816;8.662;2024-03-22T08:44:16;19.47;;;7.43;;
21168;SDS011;10742;51.816;8.662;2024-03-22T08:47:36;17.43;;;7.07;;
21168;SDS011;10742;51.816;8.662;2024-03-22T08:50:57;19.60;;;7.90;;
21168;SDS011;10742;51.816;8.662;2024-03-22T08:54:17;17.07;;;6.90;;
21168;SDS011;10742;51.816;8.662;2024-03-22T08:57:38;20.67;;;7.70;;
21168;SDS011;10742;51.816;8.662;2024-03-22T09:00:58;18.47;;;7.33;;
21168;SDS011;10742;51.816;8.662;2024-03-22T09:04:19;17.27;;;7.47;;
21168;SDS011;10742;51.816;8.662;2024-03-22T09:07:39;14.63;;;7.13;;
21168;SDS011;10742;51.816;8.662;2024-03-22T09:11:00;16.67;;;7.00;;
21168;SDS011;10742;51.816;8.662;2024-03-22T09:14:21;19.03;;;7.40;;
21168;SDS011;10742;51.816;8.662;2024-03-22T09:17:42;20.17;;;7.73;;
21168;SDS011;10742;51.816;8.662;2024-03-22T09:21:02;19.30;;;7.77;;
21168;SDS011;10742;51.816;8.662;2024-03-22T09:24:22;17.73;;;7.37;;
21168;SDS011;10742;51.816;8.662;2024-03-22T09:27:43;17.73;;;7.57;;
21168;SDS011;10742;51.816;8.662;2024-03-22T09:31:04;16.93;;;7.60;;
21168;SDS011;10742;51.816;8.662;2024-03-22T09:34:25;18.43;;;7.90;;
21168;SDS011;10742;51.816;8.662;2024-03-22T09:37:46;17.97;;;7.70;;
21168;SDS011;10742;51.816;8.662;2024-03-22T09:41:06;20.87;;;8.33;;
21168;SDS011;10742;51.816;8.662;2024-03-22T09:44:27;20.97;;;8.33;;
21168;SDS011;10742;51.816;8.662;2024-03-22T09:47:48;19.00;;;8.03;;
21168;SDS011;10742;51.816;8.662;2024-03-22T09:51:11;20.67;;;8.50;;
21168;SDS011;10742;51.816;8.662;2024-03-22T09:54:32;21.80;;;7.93;;
21168;SDS011;10742;51.816;8.662;2024-03-22T09:57:53;19.70;;;7.93;;
21168;SDS011;10742;51.816;8.662;2024-03-22T10:01:14;20.53;;;8.23;;
21168;SDS011;10742;51.816;8.662;2024-03-22T10:04:35;15.00;;;6.77;;
21168;SDS011;10742;51.816;8.662;2024-03-22T10:07:56;21.17;;;8.00;;
21168;SDS011;10742;51.816;8.662;2024-03-22T10:11:17;20.57;;;7.73;;
21168;SDS011;10742;51.816;8.662;2024-03-22T10:14:37;21.13;;;8.33;;
21168;SDS011;10742;51.816;8.662;2024-03-22T10:17:59;19.13;;;7.13;;
21168;SDS011;10742;51.816;8.662;2024-03-22T10:21:20;16.87;;;7.33;;
21168;SDS011;10742;51.816;8.662;2024-03-22T10:24:40;16.73;;;6.93;;
21168;SDS011;10742;51.816;8.662;2024-03-22T10:28:01;18.13;;;7.00;;
21168;SDS011;10742;51.816;8.662;2024-03-22T10:31:21;17.40;;;7.57;;
21168;SDS011;10742;51.816;8.662;2024-03-22T10:34:41;19.27;;;7.20;;
21168;SDS011;10742;51.816;8.662;2024-03-22T10:38:05;17.80;;;7.50;;
21168;SDS011;10742;51.816;8.662;2024-03-22T10:41:27;19.57;;;7.50;;
21168;SDS011;10742;51.816;8.662;2024-03-22T10:44:47;18.50;;;7.90;;
21168;SDS011;10742;51.816;8.662;2024-03-22T10:48:09;19.07;;;7.50;;
21168;SDS011;10742;51.816;8.662;2024-03-22T10:51:29;17.77;;;7.50;;
21168;SDS011;10742;51.816;8.662;2024-03-22T10:54:52;18.57;;;8.20;;
21168;SDS011;10742;51.816;8.662;2024-03-22T10:58:17;21.37;;;8.60;;
21168;SDS011;10742;51.816;8.662;2024-03-22T11:01:44;21.10;;;8.63;;
21168;SDS011;10742;51.816;8.662;2024-03-22T11:05:05;23.60;;;8.17;;
21168;SDS011;10742;51.816;8.662;2024-03-22T11:08:28;22.67;;;8.37;;
21168;SDS011;10742;51.816;8.662;2024-03-22T11:11:51;22.37;;;8.73;;
21168;SDS011;10742;51.816;8.662;2024-03-22T11:15:12;27.27;;;8.77;;
21168;SDS011;10742;51.816;8.662;2024-03-22T11:18:33;21.27;;;8.87;;
21168;SDS011;10742;51.816;8.662;2024-03-22T11:21:59;20.53;;;9.13;;
21168;SDS011;10742;51.816;8.662;2024-03-22T11:25:20;23.23;;;9.17;;
21168;SDS011;10742;51.816;8.662;2024-03-22T11:28:41;24.27;;;9.35;;
21168;SDS011;10742;51.816;8.662;2024-03-22T11:32:03;22.60;;;9.30;;
21168;SDS011;10742;51.816;8.662;2024-03-22T11:35:24;25.07;;;10.27;;
21168;SDS011;10742;51.816;8.662;2024-03-22T11:38:45;21.98;;;10.10;;
21168;SDS011;10742;51.816;8.662;2024-03-22T11:42:05;21.67;;;9.37;;
21168;SDS011;10742;51.816;8.662;2024-03-22T11:45:27;20.90;;;9.67;;
21168;SDS011;10742;51.816;8.662;2024-03-22T11:48:55;21.63;;;9.60;;
21168;SDS011;10742;51.816;8.662;2024-03-22T11:52:15;20.80;;;9.57;;
21168;SDS011;10742;51.816;8.662;2024-03-22T11:55:35;22.70;;;9.63;;
21168;SDS011;10742;51.816;8.662;2024-03-22T11:58:59;21.17;;;9.27;;
21168;SDS011;10742;51.816;8.662;2024-03-22T12:02:21;23.27;;;10.00;;
21168;SDS011;10742;51.816;8.662;2024-03-22T12:05:41;22.33;;;9.63;;
21168;SDS011;10742;51.816;8.662;2024-03-22T12:09:02;22.20;;;9.45;;
21168;SDS011;10742;51.816;8.662;2024-03-22T12:12:23;21.00;;;9.03;;
21168;SDS011;10742;51.816;8.662;2024-03-22T12:15:43;22.70;;;8.82;;
21168;SDS011;10742;51.816;8.662;2024-03-22T12:19:05;19.07;;;8.33;;
21168;SDS011;10742;51.816;8.662;2024-03-22T12:22:26;20.60;;;8.57;;
21168;SDS011;10742;51.816;8.662;2024-03-22T12:25:48;21.43;;;8.87;;
21168;SDS011;10742;51.816;8.662;2024-03-22T12:29:12;20.60;;;8.60;;
21168;SDS011;10742;51.816;8.662;2024-03-22T12:32:32;19.87;;;8.83;;
21168;SDS011;10742;51.816;8.662;2024-03-22T12:35:53;20.43;;;8.37;;
21168;SDS011;10742;51.816;8.662;2024-03-22T12:39:13;17.50;;;8.00;;
21168;SDS011;10742;51.816;8.662;2024-03-22T12:42:34;22.83;;;8.90;;
21168;SDS011;10742;51.816;8.662;2024-03-22T12:45:54;21.38;;;7.78;;
21168;SDS011;10742;51.816;8.662;2024-03-22T12:49:15;24.55;;;8.57;;
21168;SDS011;10742;51.816;8.662;2024-03-22T12:52:35;23.70;;;9.70;;
21168;SDS011;10742;51.816;8.662;2024-03-22T12:55:56;23.80;;;9.20;;
21168;SDS011;10742;51.816;8.662;2024-03-22T12:59:17;22.63;;;9.47;;
21168;SDS011;10742;51.816;8.662;2024-03-22T13:02:37;21.63;;;9.07;;
21168;SDS011;10742;51.816;8.662;2024-03-22T13:05:58;20.63;;;9.37;;
21168;SDS011;10742;51.816;8.662;2024-03-22T13:09:19;21.30;;;9.83;;
21168;SDS011;10742;51.816;8.662;2024-03-22T13:12:41;22.73;;;9.93;;
21168;SDS011;10742;51.816;8.662;2024-03-22T13:16:02;26.43;;;10.40;;
21168;SDS011;10742;51.816;8.662;2024-03-22T13:19:23;26.63;;;10.77;;
21168;SDS011;10742;51.816;8.662;2024-03-22T13:22:44;25.97;;;11.20;;
21168;SDS011;10742;51.816;8.662;2024-03-22T13:26:05;21.57;;;10.40;;
21168;SDS011;10742;51.816;8.662;2024-03-22T13:29:28;23.77;;;10.77;;
21168;SDS011;10742;51.816;8.662;2024-03-22T13:32:48;26.63;;;11.23;;
21168;SDS011;10742;51.816;8.662;2024-03-22T13:36:09;27.13;;;11.63;;
21168;SDS011;10742;51.816;8.662;2024-03-22T13:39:29;25.90;;;11.60;;
21168;SDS011;10742;51.816;8.662;2024-03-22T13:42:52;22.43;;;9.87;;
21168;SDS011;10742;51.816;8.662;2024-03-22T13:46:13;23.60;;;10.63;;
21168;SDS011;10742;51.816;8.662;2024-03-22T13:49:36;23.50;;;10.87;;
21168;SDS011;10742;51.816;8.662;2024-03-22T13:53:01;26.00;;;12.00;;
21168;SDS011;10742;51.816;8.662;2024-03-22T13:56:22;26.33;;;12.20;;
21168;SDS011;10742;51.816;8.662;2024-03-22T13:59:42;25.70;;;12.40;;
21168;SDS011;10742;51.816;8.662;2024-03-22T14:03:04;29.27;;;12.10;;
21168;SDS011;10742;51.816;8.662;2024-03-22T14:06:25;29.20;;;12.40;;
21168;SDS011;10742;51.816;8.662;2024-03-22T14:09:46;23.60;;;11.57;;
21168;SDS011;10742;51.816;8.662;2024-03-22T14:13:06;28.67;;;13.30;;
21168;SDS011;10742;51.816;8.662;2024-03-22T14:16:27;26.20;;;13.07;;
21168;SDS011;10742;51.816;8.662;2024-03-22T14:19:48;26.67;;;12.57;;
21168;SDS011;10742;51.816;8.662;2024-03-22T14:23:08;26.37;;;12.57;;
21168;SDS011;10742;51.816;8.662;2024-03-22T14:26:29;28.47;;;13.27;;
21168;SDS011;10742;51.816;8.662;2024-03-22T14:29:49;30.00;;;13.90;;
21168;SDS011;10742;51.816;8.662;2024-03-22T14:33:11;27.43;;;13.23;;
21168;SDS011;10742;51.816;8.662;2024-03-22T14:36:32;30.23;;;13.77;;
21168;SDS011;10742;51.816;8.662;2024-03-22T14:39:52;31.30;;;14.90;;
21168;SDS011;10742;51.816;8.662;2024-03-22T14:43:13;32.40;;;13.93;;
21168;SDS011;10742;51.816;8.662;2024-03-22T14:46:34;32.53;;;14.23;;
21168;SDS011;10742;51.816;8.662;2024-03-22T14:49:54;32.40;;;15.20;;
21168;SDS011;10742;51.816;8.662;2024-03-22T14:53:15;29.30;;;14.07;;
21168;SDS011;10742;51.816;8.662;2024-03-22T14:56:39;28.57;;;13.63;;
21168;SDS011;10742;51.816;8.662;2024-03-22T14:59:59;29.67;;;14.33;;
21168;SDS011;10742;51.816;8.662;2024-03-22T15:03:20;30.53;;;15.03;;
21168;SDS011;10742;51.816;8.662;2024-03-22T15:06:42;33.67;;;16.70;;
21168;SDS011;10742;51.816;8.662;2024-03-22T15:10:04;32.43;;;16.13;;
21168;SDS011;10742;51.816;8.662;2024-03-22T15:13:25;31.13;;;15.23;;
21168;SDS011;10742;51.816;8.662;2024-03-22T15:16:45;33.10;;;16.53;;
21168;SDS011;10742;51.816;8.662;2024-03-22T15:20:06;27.97;;;14.60;;
21168;SDS011;10742;51.816;8.662;2024-03-22T15:23:28;30.13;;;14.20;;
21168;SDS011;10742;51.816;8.662;2024-03-22T15:26:49;26.83;;;12.97;;
21168;SDS011;10742;51.816;8.662;2024-03-22T15:30:09;27.87;;;12.90;;
21168;SDS011;10742;51.816;8.662;2024-03-22T15:33:31;26.60;;;12.37;;
21168;SDS011;10742;51.816;8.662;2024-03-22T15:36:51;28.37;;;12.67;;
21168;SDS011;10742;51.816;8.662;2024-03-22T15:40:12;25.33;;;11.73;;
21168;SDS011;10742;51.816;8.662;2024-03-22T15:43:33;27.03;;;12.43;;
21168;SDS011;10742;51.816;8.662;2024-03-22T15:46:54;28.40;;;13.00;;
21168;SDS011;10742;51.816;8.662;2024-03-22T15:50:19;23.60;;;11.40;;
21168;SDS011;10742;51.816;8.662;2024-03-22T15:53:39;24.20;;;11.23;;
21168;SDS011;10742;51.816;8.662;2024-03-22T15:57:00;24.13;;;11.37;;
21168;SDS011;10742;51.816;8.662;2024-03-22T16:00:21;24.33;;;11.23;;
21168;SDS011;10742;51.816;8.662;2024-03-22T16:03:42;24.37;;;11.33;;
21168;SDS011;10742;51.816;8.662;2024-03-22T16:07:02;23.30;;;11.17;;
21168;SDS011;10742;51.816;8.662;2024-03-22T16:10:23;24.57;;;10.80;;
21168;SDS011;10742;51.816;8.662;2024-03-22T16:13:43;23.07;;;11.30;;
21168;SDS011;10742;51.816;8.662;2024-03-22T16:17:04;22.90;;;10.90;;
21168;SDS011;10742;51.816;8.662;2024-03-22T16:20:27;23.87;;;10.93;;
21168;SDS011;10742;51.816;8.662;2024-03-22T16:23:48;22.37;;;10.47;;
21168;SDS011;10742;51.816;8.662;2024-03-22T16:27:09;22.57;;;10.63;;
21168;SDS011;10742;51.816;8.662;2024-03-22T16:30:30;22.17;;;10.77;;
21168;SDS011;10742;51.816;8.662;2024-03-22T16:33:51;22.77;;;10.90;;
21168;SDS011;10742;51.816;8.662;2024-03-22T16:37:11;23.00;;;11.10;;
21168;SDS011;10742;51.816;8.662;2024-03-22T16:40:32;24.53;;;11.87;;
21168;SDS011;10742;51.816;8.662;2024-03-22T16:43:52;24.17;;;12.10;;
21168;SDS011;10742;51.816;8.662;2024-03-22T16:47:13;24.43;;;11.63;;
21168;SDS011;10742;51.816;8.662;2024-03-22T16:50:34;23.87;;;11.43;;
21168;SDS011;10742;51.816;8.662;2024-03-22T16:53:54;24.57;;;11.40;;
21168;SDS011;10742;51.816;8.662;2024-03-22T16:57:15;19.57;;;10.10;;
21168;SDS011;10742;51.816;8.662;2024-03-22T17:00:39;23.77;;;10.63;;
21168;SDS011;10742;51.816;8.662;2024-03-22T17:04:00;25.27;;;11.00;;
21168;SDS011;10742;51.816;8.662;2024-03-22T17:07:20;22.90;;;11.33;;
21168;SDS011;10742;51.816;8.662;2024-03-22T17:10:41;24.30;;;11.67;;
21168;SDS011;10742;51.816;8.662;2024-03-22T17:14:02;23.30;;;11.57;;
21168;SDS011;10742;51.816;8.662;2024-03-22T17:17:22;22.97;;;11.23;;
21168;SDS011;10742;51.816;8.662;2024-03-22T17:20:43;22.37;;;11.00;;
21168;SDS011;10742;51.816;8.662;2024-03-22T17:24:03;24.93;;;11.80;;
21168;SDS011;10742;51.816;8.662;2024-03-22T17:27:24;24.40;;;11.97;;
21168;SDS011;10742;51.816;8.662;2024-03-22T17:30:45;22.23;;;11.00;;
21168;SDS011;10742;51.816;8.662;2024-03-22T17:34:05;27.33;;;14.37;;
21168;SDS011;10742;51.816;8.662;2024-03-22T17:37:26;23.23;;;11.47;;
21168;SDS011;10742;51.816;8.662;2024-03-22T17:40:47;23.13;;;10.53;;
21168;SDS011;10742;51.816;8.662;2024-03-22T17:44:07;25.27;;;11.57;;
21168;SDS011;10742;51.816;8.662;2024-03-22T17:47:27;22.20;;;10.80;;
21168;SDS011;10742;51.816;8.662;2024-03-22T17:50:48;24.53;;;11.87;;
21168;SDS011;10742;51.816;8.662;2024-03-22T17:54:09;26.20;;;12.33;;
21168;SDS011;10742;51.816;8.662;2024-03-22T17:57:29;26.17;;;11.97;;
21168;SDS011;10742;51.816;8.662;2024-03-22T18:00:51;23.67;;;11.50;;
21168;SDS011;10742;51.816;8.662;2024-03-22T18:04:11;26.57;;;12.10;;
21168;SDS011;10742;51.816;8.662;2024-03-22T18:07:32;28.20;;;14.47;;
21168;SDS011;10742;51.816;8.662;2024-03-22T18:10:52;27.53;;;13.17;;
21168;SDS011;10742;51.816;8.662;2024-03-22T18:14:13;25.17;;;12.80;;
21168;SDS011;10742;51.816;8.662;2024-03-22T18:17:33;25.80;;;11.73;;
21168;SDS011;10742;51.816;8.662;2024-03-22T18:20:54;26.13;;;12.50;;
21168;SDS011;10742;51.816;8.662;2024-03-22T18:24:16;24.87;;;12.27;;
21168;SDS011;10742;51.816;8.662;2024-03-22T18:27:38;25.83;;;11.53;;
21168;SDS011;10742;51.816;8.662;2024-03-22T18:30:58;22.43;;;11.17;;
21168;SDS011;10742;51.816;8.662;2024-03-22T18:34:19;25.63;;;12.83;;
21168;SDS011;10742;51.816;8.662;2024-03-22T18:37:39;23.93;;;12.23;;
21168;SDS011;10742;51.816;8.662;2024-03-22T18:41:00;24.37;;;11.83;;
21168;SDS011;10742;51.816;8.662;2024-03-22T18:44:23;25.37;;;12.67;;
21168;SDS011;10742;51.816;8.662;2024-03-22T18:47:43;24.73;;;11.83;;
21168;SDS011;10742;51.816;8.662;2024-03-22T18:51:04;25.07;;;11.70;;
21168;SDS011;10742;51.816;8.662;2024-03-22T18:54:31;26.90;;;12.50;;
21168;SDS011;10742;51.816;8.662;2024-03-22T18:57:52;24.27;;;11.93;;
21168;SDS011;10742;51.816;8.662;2024-03-22T19:01:13;25.07;;;11.80;;
21168;SDS011;10742;51.816;8.662;2024-03-22T19:04:33;25.27;;;11.90;;
21168;SDS011;10742;51.816;8.662;2024-03-22T19:07:53;25.23;;;12.33;;
21168;SDS011;10742;51.816;8.662;2024-03-22T19:11:14;24.77;;;12.30;;
21168;SDS011;10742;51.816;8.662;2024-03-22T19:14:35;24.80;;;11.50;;
21168;SDS011;10742;51.816;8.662;2024-03-22T19:17:55;28.83;;;13.17;;
21168;SDS011;10742;51.816;8.662;2024-03-22T19:21:16;26.67;;;13.00;;
21168;SDS011;10742;51.816;8.662;2024-03-22T19:24:37;27.17;;;12.53;;
21168;SDS011;10742;51.816;8.662;2024-03-22T19:27:57;22.07;;;10.67;;
21168;SDS011;10742;51.816;8.662;2024-03-22T19:31:17;17.80;;;7.10;;
21168;SDS011;10742;51.816;8.662;2024-03-22T19:34:38;13.40;;;6.07;;
21168;SDS011;10742;51.816;8.662;2024-03-22T19:37:59;11.87;;;4.67;;
21168;SDS011;10742;51.816;8.662;2024-03-22T19:41:20;9.95;;;4.22;;